createdAt,value
2023-05-18T00:02:07.552Z,14.10
2023-05-18T00:04:41.222Z,14.08
2023-05-18T00:07:12.745Z,14.09
2023-05-18T00:09:44.996Z,14.06
2023-05-18T00:12:16.504Z,14.08
2023-05-18T00:14:48.033Z,14.06
2023-05-18T00:17:21.401Z,14.06
2023-05-18T00:19:53.131Z,13.85
2023-05-18T00:22:25.331Z,13.72
2023-05-18T00:24:57.506Z,13.79
2023-05-18T00:27:32.570Z,13.82
2023-05-18T00:30:08.954Z,13.93
2023-05-18T00:32:40.569Z,13.89
2023-05-18T00:35:12.088Z,13.85
2023-05-18T00:37:44.742Z,13.79
2023-05-18T00:40:17.480Z,13.72
2023-05-18T00:42:51.164Z,13.65
2023-05-18T00:45:23.550Z,13.59
2023-05-18T00:47:56.534Z,13.63
2023-05-18T00:50:29.427Z,13.63
2023-05-18T00:53:02.830Z,13.47
2023-05-18T00:55:35.480Z,13.47
2023-05-18T00:58:08.678Z,13.45
2023-05-18T01:00:42.179Z,13.47
2023-05-18T01:03:17.147Z,13.38
2023-05-18T01:05:57.429Z,13.34
2023-05-18T01:08:31.207Z,13.34
2023-05-18T01:11:23.842Z,13.31
2023-05-18T01:14:08.315Z,13.21
2023-05-18T01:16:47.056Z,13.10
2023-05-18T01:19:43.726Z,13.07
2023-05-18T01:22:38.978Z,13.08
2023-05-18T01:25:20.964Z,13.04
2023-05-18T01:27:53.911Z,12.97
2023-05-18T01:30:24.999Z,12.97
2023-05-18T01:32:55.863Z,13.00
2023-05-18T01:35:26.778Z,12.97
2023-05-18T01:37:56.748Z,12.94
2023-05-18T01:40:30.709Z,12.94
2023-05-18T01:43:08.319Z,12.99
2023-05-18T01:45:44.460Z,13.01
2023-05-18T01:48:20.053Z,12.99
2023-05-18T01:50:54.114Z,12.94
2023-05-18T01:53:44.419Z,12.86
2023-05-18T01:56:15.785Z,12.87
2023-05-18T01:58:46.745Z,12.93
2023-05-18T02:01:21.230Z,12.90
2023-05-18T02:03:53.495Z,12.94
2023-05-18T02:06:24.427Z,12.90
2023-05-18T02:08:54.407Z,12.87
2023-05-18T02:11:25.708Z,12.80
2023-05-18T02:13:56.200Z,12.80
2023-05-18T02:16:26.432Z,12.84
2023-05-18T02:18:58.020Z,12.87
2023-05-18T02:21:28.815Z,12.87
2023-05-18T02:23:59.756Z,12.89
2023-05-18T02:26:30.515Z,12.77
2023-05-18T02:29:02.556Z,12.55
2023-05-18T02:31:33.901Z,12.46
2023-05-18T02:34:06.216Z,12.48
2023-05-18T02:36:42.026Z,12.46
2023-05-18T02:39:12.262Z,12.46
2023-05-18T02:41:42.965Z,12.50
2023-05-18T02:44:14.553Z,12.53
2023-05-18T02:46:45.044Z,12.49
2023-05-18T02:49:15.255Z,12.50
2023-05-18T02:51:45.892Z,12.43
2023-05-18T02:54:17.144Z,12.42
2023-05-18T02:56:47.667Z,12.39
2023-05-18T02:59:40.313Z,12.17
2023-05-18T03:02:11.155Z,12.21
2023-05-18T03:04:43.237Z,12.20
2023-05-18T03:07:13.471Z,12.22
2023-05-18T03:09:43.391Z,12.25
2023-05-18T03:12:13.805Z,12.25
2023-05-18T03:14:44.033Z,12.24
2023-05-18T03:17:14.947Z,12.24
2023-05-18T03:19:45.705Z,12.22
2023-05-18T03:22:16.660Z,12.08
2023-05-18T03:24:48.168Z,12.08
2023-05-18T03:27:21.392Z,12.05
2023-05-18T03:29:51.820Z,12.13
2023-05-18T03:32:21.717Z,12.21
2023-05-18T03:34:55.605Z,12.10
2023-05-18T03:37:26.293Z,12.02
2023-05-18T03:40:12.482Z,11.91
2023-05-18T03:42:44.878Z,11.87
2023-05-18T03:45:15.718Z,11.88
2023-05-18T03:47:47.038Z,11.84
2023-05-18T03:50:18.239Z,11.83
2023-05-18T03:52:48.388Z,11.75
2023-05-18T03:55:18.455Z,11.73
2023-05-18T03:57:50.051Z,11.71
2023-05-18T04:00:21.160Z,11.66
2023-05-18T04:02:53.372Z,11.70
2023-05-18T04:05:27.177Z,11.73
2023-05-18T04:07:58.690Z,11.73
2023-05-18T04:10:29.462Z,11.75
2023-05-18T04:13:00.864Z,11.80
2023-05-18T04:15:31.228Z,11.59
2023-05-18T04:18:03.378Z,11.39
2023-05-18T04:20:34.070Z,11.39
2023-05-18T04:23:04.738Z,11.42
2023-05-18T04:25:35.050Z,11.54
2023-05-18T04:28:05.414Z,11.53
2023-05-18T04:30:38.825Z,11.39
2023-05-18T04:33:09.766Z,11.40
2023-05-18T04:35:39.589Z,11.39
2023-05-18T04:38:09.724Z,11.37
2023-05-18T04:40:44.629Z,11.33
2023-05-18T04:43:18.692Z,11.32
2023-05-18T04:45:51.770Z,11.32
2023-05-18T04:48:22.129Z,11.29
2023-05-18T04:50:55.422Z,11.22
2023-05-18T04:53:25.928Z,11.23
2023-05-18T04:55:57.894Z,11.23
2023-05-18T04:58:31.901Z,11.18
2023-05-18T05:01:02.831Z,11.22
2023-05-18T05:03:33.219Z,11.22
2023-05-18T05:06:06.165Z,11.19
2023-05-18T05:08:39.467Z,11.15
2023-05-18T05:11:12.543Z,11.12
2023-05-18T05:13:43.820Z,11.08
2023-05-18T05:16:14.308Z,11.04
2023-05-18T05:18:45.912Z,10.99
2023-05-18T05:21:18.229Z,11.01
2023-05-18T05:23:49.269Z,11.01
2023-05-18T05:26:21.248Z,11.04
2023-05-18T05:28:51.930Z,10.96
2023-05-18T05:31:23.143Z,10.88
2023-05-18T05:33:54.060Z,10.79
2023-05-18T05:36:26.009Z,10.78
2023-05-18T05:38:56.217Z,10.77
2023-05-18T05:41:26.458Z,10.69
2023-05-18T05:43:58.099Z,10.64
2023-05-18T05:46:28.552Z,10.65
2023-05-18T05:49:00.280Z,10.71
2023-05-18T05:51:30.455Z,10.69
2023-05-18T05:53:59.759Z,10.65
2023-05-18T05:56:29.738Z,10.65
2023-05-18T05:58:59.991Z,10.64
2023-05-18T06:01:30.957Z,10.57
2023-05-18T06:04:01.478Z,10.53
2023-05-18T06:06:33.920Z,10.56
2023-05-18T06:09:05.843Z,10.61
2023-05-18T06:11:36.906Z,10.63
2023-05-18T06:14:07.592Z,10.61
2023-05-18T06:16:38.305Z,10.61
2023-05-18T06:19:09.722Z,10.65
2023-05-18T06:21:40.599Z,10.63
2023-05-18T06:24:12.560Z,10.61
2023-05-18T06:26:54.653Z,10.48
2023-05-18T06:30:00.578Z,10.37
2023-05-18T06:32:41.205Z,10.30
2023-05-18T06:35:12.038Z,10.26
2023-05-18T06:37:42.151Z,10.27
2023-05-18T06:40:13.031Z,10.38
2023-05-18T06:42:43.460Z,10.50
2023-05-18T06:45:36.148Z,10.50
2023-05-18T06:48:16.171Z,10.34
2023-05-18T06:50:47.655Z,10.21
2023-05-18T06:53:18.620Z,10.17
2023-05-18T06:55:48.711Z,10.17
2023-05-18T06:58:21.745Z,10.17
2023-05-18T07:00:53.049Z,10.13
2023-05-18T07:03:23.309Z,10.08
2023-05-18T07:05:53.356Z,10.08
2023-05-18T07:08:26.304Z,10.05
2023-05-18T07:11:00.085Z,9.96
2023-05-18T07:13:31.030Z,9.90
2023-05-18T07:16:02.128Z,9.81
2023-05-18T07:18:32.436Z,9.79
2023-05-18T07:21:02.897Z,9.86
2023-05-18T07:23:33.930Z,9.81
2023-05-18T07:26:04.177Z,9.74
2023-05-18T07:28:35.005Z,9.69
2023-05-18T07:31:06.855Z,9.71
2023-05-18T07:33:38.056Z,9.75
2023-05-18T07:36:10.062Z,9.55
2023-05-18T07:38:41.370Z,9.55
2023-05-18T07:41:13.356Z,9.57
2023-05-18T07:43:43.638Z,9.58
2023-05-18T07:46:13.025Z,9.57
2023-05-18T07:48:44.570Z,9.62
2023-05-18T07:51:15.214Z,9.52
2023-05-18T07:53:47.272Z,9.51
2023-05-18T07:56:17.951Z,9.48
2023-05-18T07:58:50.009Z,9.47
2023-05-18T08:01:20.587Z,9.41
2023-05-18T08:03:51.397Z,9.48
2023-05-18T08:06:22.692Z,9.49
2023-05-18T08:08:58.176Z,9.41
2023-05-18T08:11:28.460Z,9.49
2023-05-18T08:13:58.779Z,9.48
2023-05-18T08:16:29.025Z,9.40
2023-05-18T08:18:59.193Z,9.34
2023-05-18T08:21:30.689Z,9.35
2023-05-18T08:24:00.780Z,9.42
2023-05-18T08:26:30.590Z,9.42
2023-05-18T08:29:01.207Z,9.37
2023-05-18T08:31:32.065Z,9.32
2023-05-18T08:34:02.617Z,9.32
2023-05-18T08:36:34.713Z,9.35
2023-05-18T08:39:06.562Z,9.19
2023-05-18T08:41:42.538Z,9.17
2023-05-18T08:44:26.601Z,9.11
2023-05-18T08:46:57.398Z,9.13
2023-05-18T08:49:29.600Z,9.11
2023-05-18T08:52:04.944Z,9.16
2023-05-18T08:54:38.232Z,9.17
2023-05-18T08:57:11.054Z,9.17
2023-05-18T08:59:45.388Z,9.21
2023-05-18T09:02:15.970Z,9.23
2023-05-18T09:04:48.385Z,9.09
2023-05-18T09:07:19.677Z,9.04
2023-05-18T09:09:50.504Z,9.01
2023-05-18T09:15:20.945Z,9.00
2023-05-18T09:17:50.970Z,8.99
2023-05-18T09:20:21.197Z,8.99
2023-05-18T09:22:52.650Z,8.96
2023-05-18T09:25:25.419Z,8.89
2023-05-18T09:27:57.799Z,8.93
2023-05-18T09:30:28.615Z,8.91
2023-05-18T09:32:57.993Z,8.86
2023-05-18T09:35:29.783Z,8.97
2023-05-18T09:38:06.412Z,8.77
2023-05-18T09:40:36.675Z,8.77
2023-05-18T09:43:09.007Z,8.80
2023-05-18T09:45:50.509Z,8.80
2023-05-18T09:48:23.474Z,8.82
2023-05-18T09:50:55.072Z,8.83
2023-05-18T09:53:24.904Z,8.87
2023-05-18T09:55:55.729Z,8.80
2023-05-18T09:58:26.364Z,8.73
2023-05-18T10:01:03.874Z,8.82
2023-05-18T10:03:40.724Z,8.84
2023-05-18T10:06:14.501Z,8.79
2023-05-18T10:08:46.696Z,8.82
2023-05-18T10:11:21.272Z,8.79
2023-05-18T10:13:57.301Z,8.82
2023-05-18T10:16:27.906Z,8.93
2023-05-18T10:18:59.091Z,8.96
2023-05-18T10:21:32.436Z,8.94
2023-05-18T10:24:05.841Z,9.01
2023-05-18T10:26:41.186Z,9.04
2023-05-18T10:29:12.351Z,9.10
2023-05-18T10:31:43.759Z,9.19
2023-05-18T10:34:14.228Z,9.37
2023-05-18T10:36:46.427Z,9.51
2023-05-18T10:39:17.440Z,11.05
2023-05-18T10:41:48.706Z,13.24
2023-05-18T10:44:19.504Z,13.38
2023-05-18T10:46:51.961Z,13.65
2023-05-18T10:49:27.334Z,14.08
2023-05-18T10:51:59.363Z,15.16
2023-05-18T10:54:30.738Z,15.51
2023-05-18T10:57:04.520Z,15.90
2023-05-18T10:59:36.042Z,15.02
2023-05-18T11:02:06.418Z,14.84
2023-05-18T11:04:36.336Z,15.64
2023-05-18T11:07:12.687Z,15.53
2023-05-18T11:09:46.798Z,16.15
2023-05-18T11:12:22.191Z,15.57
2023-05-18T11:14:54.440Z,14.75
2023-05-18T11:17:27.186Z,14.60
2023-05-18T11:20:11.051Z,14.17
2023-05-18T11:22:54.584Z,14.88
2023-05-18T11:25:27.375Z,17.00
2023-05-18T11:28:03.071Z,17.76
2023-05-18T11:30:41.532Z,17.27
2023-05-18T11:33:42.348Z,16.73
2023-05-18T11:36:15.960Z,17.71
2023-05-18T11:38:54.188Z,17.51
2023-05-18T11:41:40.432Z,19.94
2023-05-18T11:44:23.333Z,21.37
2023-05-18T11:47:04.764Z,22.17
2023-05-18T11:49:40.224Z,22.61
2023-05-18T11:52:23.325Z,23.09
2023-05-18T11:54:55.665Z,23.12
2023-05-18T11:57:41.976Z,23.22
2023-05-18T12:00:14.533Z,23.08
2023-05-18T12:02:47.682Z,23.26
2023-05-18T12:05:18.612Z,23.87
2023-05-18T12:07:54.977Z,23.97
2023-05-18T12:10:26.125Z,24.11
2023-05-18T12:12:57.732Z,24.08
2023-05-18T12:15:30.564Z,25.89
2023-05-18T12:18:00.860Z,26.16
2023-05-18T12:20:34.680Z,25.37
2023-05-18T12:23:05.581Z,25.02
2023-05-18T12:25:35.923Z,24.87
2023-05-18T12:28:06.016Z,25.15
2023-05-18T12:30:38.386Z,25.37
2023-05-18T12:33:10.212Z,24.84
2023-05-18T12:35:42.542Z,24.88
2023-05-18T12:38:12.875Z,24.84
2023-05-18T12:40:49.806Z,24.75
2023-05-18T12:43:20.522Z,24.72
2023-05-18T12:45:51.306Z,25.10
2023-05-18T12:48:23.426Z,24.65
2023-05-18T12:50:55.005Z,24.87
2023-05-18T12:53:25.747Z,24.73
2023-05-18T12:56:02.767Z,24.53
2023-05-18T12:58:34.069Z,25.24
2023-05-18T13:01:14.757Z,25.27
2023-05-18T13:03:45.668Z,24.52
2023-05-18T13:06:15.572Z,25.17
2023-05-18T13:08:49.913Z,24.84
2023-05-18T13:11:31.379Z,24.70
2023-05-18T13:14:10.252Z,23.87
2023-05-18T13:16:43.859Z,23.67
2023-05-18T13:19:20.368Z,24.51
2023-05-18T13:21:58.596Z,25.42
2023-05-18T13:24:29.588Z,25.31
2023-05-18T13:27:00.003Z,25.94
2023-05-18T13:29:30.111Z,25.25
2023-05-18T13:32:02.154Z,25.68
2023-05-18T13:34:33.065Z,26.39
2023-05-18T13:37:06.245Z,26.67
2023-05-18T13:39:36.833Z,25.68
2023-05-18T13:42:08.526Z,26.26
2023-05-18T13:44:40.107Z,26.82
2023-05-18T13:47:10.493Z,27.36
2023-05-18T13:49:40.305Z,27.29
2023-05-18T13:52:11.796Z,26.57
2023-05-18T13:54:48.750Z,26.27
2023-05-18T13:57:20.161Z,26.57
2023-05-18T13:59:50.461Z,26.40
2023-05-18T14:02:21.855Z,25.65
2023-05-18T14:04:54.083Z,25.88
2023-05-18T14:07:26.181Z,26.03
2023-05-18T14:09:56.848Z,26.51
2023-05-18T14:12:28.586Z,25.37
2023-05-18T14:15:00.178Z,25.21
2023-05-18T14:17:34.171Z,25.23
2023-05-18T14:20:08.251Z,25.02
2023-05-18T14:22:41.663Z,25.20
2023-05-18T14:25:14.625Z,25.18
2023-05-18T14:27:45.824Z,25.55
2023-05-18T14:30:16.568Z,26.17
2023-05-18T14:32:47.926Z,26.31
2023-05-18T14:35:20.602Z,27.09
2023-05-18T14:37:52.060Z,26.22
2023-05-18T14:40:22.612Z,25.88
2023-05-18T14:42:54.079Z,25.94
2023-05-18T14:45:25.793Z,26.03
2023-05-18T14:47:57.234Z,25.94
2023-05-18T14:50:28.141Z,25.61
2023-05-18T14:52:58.587Z,25.85
2023-05-18T14:55:29.747Z,26.17
2023-05-18T14:58:01.291Z,26.14
2023-05-18T15:00:32.091Z,26.02
2023-05-18T15:03:03.031Z,26.00
2023-05-18T15:05:36.349Z,25.72
2023-05-18T15:08:08.301Z,25.85
2023-05-18T15:10:38.562Z,25.72
2023-05-18T15:13:10.000Z,26.04
2023-05-18T15:15:41.001Z,26.04
2023-05-18T15:18:11.998Z,26.55
2023-05-18T15:20:45.901Z,27.13
2023-05-18T15:23:17.356Z,27.01
2023-05-18T15:25:48.103Z,27.12
2023-05-18T15:28:18.669Z,26.65
2023-05-18T15:30:48.481Z,26.44
2023-05-18T15:33:19.037Z,27.06
2023-05-18T15:35:50.413Z,27.29
2023-05-18T15:38:20.648Z,27.36
2023-05-18T15:40:52.051Z,27.90
2023-05-18T15:43:27.574Z,28.04
2023-05-18T15:45:59.974Z,27.98
2023-05-18T15:48:31.646Z,27.71
2023-05-18T15:51:01.775Z,27.78
2023-05-18T15:53:31.610Z,27.45
2023-05-18T15:56:02.226Z,27.03
2023-05-18T15:58:32.849Z,27.09
2023-05-18T16:01:03.215Z,27.22
2023-05-18T16:03:34.792Z,27.05
2023-05-18T16:06:05.493Z,27.94
2023-05-18T16:08:36.484Z,28.14
2023-05-18T16:11:08.431Z,28.63
2023-05-18T16:13:38.424Z,28.41
2023-05-18T16:16:11.258Z,28.28
2023-05-18T16:18:43.057Z,28.51
2023-05-18T16:21:13.515Z,28.82
2023-05-18T16:23:43.684Z,29.08
2023-05-18T16:26:14.690Z,29.15
2023-05-18T16:28:45.677Z,29.13
2023-05-18T16:31:16.723Z,29.39
2023-05-18T16:33:46.633Z,29.27
2023-05-18T16:36:16.808Z,29.13
2023-05-18T16:38:47.151Z,28.92
2023-05-18T16:41:18.138Z,29.28
2023-05-18T16:43:50.067Z,29.45
2023-05-18T16:46:21.844Z,29.35
2023-05-18T16:48:52.050Z,29.31
2023-05-18T16:51:22.449Z,29.57
2023-05-18T16:53:53.992Z,29.82
2023-05-18T16:56:23.974Z,30.54
2023-05-18T16:58:54.642Z,30.98
2023-05-18T17:01:28.788Z,31.22
2023-05-18T17:03:59.788Z,31.45
2023-05-18T17:06:29.712Z,31.54
2023-05-18T17:09:00.024Z,32.27
2023-05-18T17:11:30.352Z,33.26
2023-05-18T17:14:02.532Z,34.35
2023-05-18T17:16:34.360Z,34.70
2023-05-18T17:19:05.269Z,33.98
2023-05-18T17:21:36.428Z,33.95
2023-05-18T17:24:08.727Z,34.31
2023-05-18T17:26:39.288Z,34.31
2023-05-18T17:29:09.364Z,34.90
2023-05-18T17:31:44.368Z,34.94
2023-05-18T17:34:15.840Z,34.40
2023-05-18T17:36:47.224Z,35.31
2023-05-18T17:39:17.733Z,35.88
2023-05-18T17:41:52.807Z,35.31
2023-05-18T17:44:23.770Z,36.04
2023-05-18T17:46:55.026Z,36.39
2023-05-18T17:49:25.364Z,36.96
2023-05-18T17:51:56.049Z,37.35
2023-05-18T17:54:27.603Z,35.79
2023-05-18T17:57:01.104Z,36.85
2023-05-18T17:59:31.917Z,36.15
2023-05-18T18:02:02.651Z,35.68
2023-05-18T18:04:33.309Z,36.85
2023-05-18T18:07:04.784Z,37.57
2023-05-18T18:09:35.476Z,36.60
2023-05-18T18:12:08.097Z,36.06
2023-05-18T18:14:43.423Z,36.40
2023-05-18T18:17:16.087Z,34.91
2023-05-18T18:19:45.958Z,35.15
2023-05-18T18:22:22.930Z,34.71
2023-05-18T18:24:54.967Z,35.13
2023-05-18T18:27:26.498Z,34.91
2023-05-18T18:29:57.537Z,32.99
2023-05-18T18:32:29.338Z,32.24
2023-05-18T18:35:00.872Z,31.51
2023-05-18T18:37:30.990Z,29.82
2023-05-18T18:40:00.827Z,29.06
2023-05-18T18:42:32.295Z,28.39
2023-05-18T18:45:03.313Z,28.44
2023-05-18T18:47:33.609Z,28.70
2023-05-18T18:50:04.555Z,28.44
2023-05-18T18:52:36.423Z,29.39
2023-05-18T18:55:07.953Z,29.72
2023-05-18T18:57:38.485Z,29.81
2023-05-18T19:00:12.197Z,29.27
2023-05-18T19:02:43.068Z,28.52
2023-05-18T19:05:14.499Z,27.74
2023-05-18T19:07:44.926Z,27.15
2023-05-18T19:10:14.725Z,26.26
2023-05-18T19:12:46.765Z,25.57
2023-05-18T19:15:19.781Z,25.15
2023-05-18T19:17:56.026Z,24.69
2023-05-18T19:20:26.286Z,24.39
2023-05-18T19:22:57.062Z,24.19
2023-05-18T19:25:27.879Z,23.89
2023-05-18T19:28:00.192Z,23.64
2023-05-18T19:30:30.408Z,23.39
2023-05-18T19:33:00.561Z,23.05
2023-05-18T19:35:32.539Z,22.87
2023-05-18T19:38:03.417Z,22.75
2023-05-18T19:40:33.387Z,22.50
2023-05-18T19:43:04.552Z,22.29
2023-05-18T19:45:36.227Z,22.13
2023-05-18T19:48:06.854Z,21.93
2023-05-18T19:50:37.090Z,21.61
2023-05-18T19:53:07.132Z,21.45
2023-05-18T19:55:37.730Z,21.38
2023-05-18T19:58:08.145Z,21.21
2023-05-18T20:00:39.165Z,20.98
2023-05-18T20:03:10.557Z,20.72
2023-05-18T20:05:41.167Z,20.65
2023-05-18T20:08:13.731Z,20.55
2023-05-18T20:10:46.533Z,20.42
2023-05-18T20:13:16.665Z,20.21
2023-05-18T20:15:48.135Z,19.98
2023-05-18T20:18:19.284Z,19.82
2023-05-18T20:20:51.169Z,19.63
2023-05-18T20:23:21.305Z,19.49
2023-05-18T20:25:52.108Z,19.37
2023-05-18T20:28:22.899Z,19.20
2023-05-18T20:30:53.550Z,19.10
2023-05-18T20:33:24.119Z,18.98
2023-05-18T20:35:54.567Z,18.85
2023-05-18T20:38:27.153Z,18.79
2023-05-18T20:40:59.180Z,18.71
2023-05-18T20:43:29.736Z,18.51
2023-05-18T20:46:00.996Z,18.29
2023-05-18T20:48:32.849Z,18.09
2023-05-18T20:51:04.425Z,17.92
2023-05-18T20:53:35.498Z,17.81
2023-05-18T20:56:07.058Z,17.72
2023-05-18T20:58:37.307Z,17.62
2023-05-18T21:01:12.057Z,17.55
2023-05-18T21:03:46.443Z,17.48
2023-05-18T21:06:17.760Z,17.34
2023-05-18T21:08:47.934Z,17.23
2023-05-18T21:11:17.961Z,17.18
2023-05-18T21:13:49.222Z,17.14
2023-05-18T21:16:20.348Z,17.02
2023-05-18T21:18:51.317Z,16.94
2023-05-18T21:21:22.065Z,16.90
2023-05-18T21:23:53.489Z,16.77
2023-05-18T21:26:25.263Z,16.72
2023-05-18T21:28:55.963Z,16.69
2023-05-18T21:31:25.832Z,16.65
2023-05-18T21:33:56.572Z,16.52
2023-05-18T21:36:37.093Z,16.45
2023-05-18T21:39:10.237Z,16.41
2023-05-18T21:41:41.461Z,16.32
2023-05-18T21:44:13.574Z,16.25
2023-05-18T21:46:44.717Z,16.21
2023-05-18T21:49:14.997Z,16.18
2023-05-18T21:51:45.007Z,16.15
2023-05-18T21:54:15.950Z,16.04
2023-05-18T21:56:47.242Z,15.97
2023-05-18T21:59:18.458Z,15.91
2023-05-18T22:01:48.607Z,15.77
2023-05-18T22:04:19.092Z,15.71
2023-05-18T22:06:49.564Z,15.70
2023-05-18T22:09:21.394Z,15.68
2023-05-18T22:11:51.879Z,15.66
2023-05-18T22:14:21.856Z,15.64
2023-05-18T22:16:52.791Z,15.61
2023-05-18T22:19:23.915Z,15.56
2023-05-18T22:21:59.590Z,15.57
2023-05-18T22:24:29.435Z,15.56
2023-05-18T22:26:59.685Z,15.53
2023-05-18T22:29:30.823Z,15.58
2023-05-18T22:32:02.153Z,15.58
2023-05-18T22:34:33.298Z,15.57
2023-05-18T22:37:04.738Z,15.51
2023-05-18T22:39:36.231Z,15.53
2023-05-18T22:42:06.929Z,15.53
2023-05-18T22:44:37.600Z,15.50
2023-05-18T22:47:10.522Z,15.56
2023-05-18T22:49:42.313Z,15.47
2023-05-18T22:52:12.403Z,15.33
2023-05-18T22:54:42.234Z,15.36
2023-05-18T22:57:12.873Z,15.33
2023-05-18T22:59:44.702Z,15.26
2023-05-18T23:02:15.620Z,15.23
2023-05-18T23:04:46.045Z,15.15
2023-05-18T23:07:16.129Z,15.13
2023-05-18T23:09:46.588Z,15.09
2023-05-18T23:12:18.437Z,15.02
2023-05-18T23:14:51.437Z,14.89
2023-05-18T23:17:23.899Z,14.88
2023-05-18T23:19:55.412Z,14.89
2023-05-18T23:22:26.077Z,14.81
2023-05-18T23:24:56.262Z,14.72
2023-05-18T23:27:26.120Z,14.60
2023-05-18T23:29:57.183Z,14.56
2023-05-18T23:32:28.649Z,14.47
2023-05-18T23:35:00.627Z,14.50
2023-05-18T23:37:33.006Z,14.50
2023-05-18T23:40:04.333Z,14.40
2023-05-18T23:42:35.429Z,14.33
2023-05-18T23:45:07.766Z,14.33
2023-05-18T23:47:38.481Z,14.37
2023-05-18T23:50:08.945Z,14.40
2023-05-18T23:52:42.765Z,14.37
2023-05-18T23:55:14.818Z,14.33
2023-05-18T23:57:45.346Z,14.33
